createdAt,value
2022-12-18T00:01:22.815Z,98348.38
2022-12-18T00:03:50.100Z,98344.91
2022-12-18T00:06:17.311Z,98348.31
2022-12-18T00:08:45.281Z,98350.63
2022-12-18T00:11:16.746Z,98353.25
2022-12-18T00:13:43.579Z,98356.22
2022-12-18T00:16:13.506Z,98345.78
2022-12-18T00:18:40.987Z,98345.69
2022-12-18T00:21:11.083Z,98344.22
2022-12-18T00:23:39.527Z,98343.91
2022-12-18T00:26:11.718Z,98352.53
2022-12-18T00:28:38.252Z,98355.06
2022-12-18T00:31:07.594Z,98356.31
2022-12-18T00:33:34.920Z,98350.25
2022-12-18T00:36:03.763Z,98357.72
2022-12-18T00:38:32.708Z,98358.59
2022-12-18T00:40:59.192Z,98360.78
2022-12-18T00:43:26.043Z,98358.75
2022-12-18T00:45:53.572Z,98361.78
2022-12-18T00:48:20.167Z,98348.31
2022-12-18T00:50:47.997Z,98355.47
2022-12-18T00:53:14.494Z,98355.91
2022-12-18T00:55:41.989Z,98366.50
2022-12-18T00:58:09.569Z,98359.75
2022-12-18T01:00:37.027Z,98363.81
2022-12-18T01:03:03.750Z,98365.34
2022-12-18T01:05:30.402Z,98352.63
2022-12-18T01:07:57.871Z,98345.09
2022-12-18T01:10:25.131Z,98356.63
2022-12-18T01:12:52.312Z,98353.28
2022-12-18T01:15:19.722Z,98356.41
2022-12-18T01:17:46.236Z,98367.00
2022-12-18T01:20:14.142Z,98372.22
2022-12-18T01:22:40.897Z,98366.31
2022-12-18T01:25:08.228Z,98362.38
2022-12-18T01:27:35.167Z,98352.09
2022-12-18T01:30:05.008Z,98356.00
2022-12-18T01:32:32.656Z,98350.84
2022-12-18T01:34:59.424Z,98354.34
2022-12-18T01:37:27.661Z,98360.19
2022-12-18T01:39:55.337Z,98358.28
2022-12-18T01:42:22.603Z,98363.06
2022-12-18T01:44:58.803Z,98362.38
2022-12-18T01:47:47.100Z,98366.13
2022-12-18T01:50:35.015Z,98345.47
2022-12-18T01:53:17.937Z,98342.22
2022-12-18T01:55:51.335Z,98338.69
2022-12-18T01:58:20.864Z,98344.53
2022-12-18T02:00:47.502Z,98345.13
2022-12-18T02:03:14.449Z,98362.81
2022-12-18T02:05:56.539Z,98360.94
2022-12-18T02:08:27.832Z,98357.72
2022-12-18T02:11:00.660Z,98360.56
2022-12-18T02:13:47.273Z,98363.22
2022-12-18T02:16:36.813Z,98360.75
2022-12-18T02:19:32.557Z,98353.88
2022-12-18T02:22:08.148Z,98363.75
2022-12-18T02:24:56.489Z,98362.50
2022-12-18T02:27:23.525Z,98361.00
2022-12-18T02:29:58.950Z,98350.78
2022-12-18T02:32:33.812Z,98342.66
2022-12-18T02:35:02.087Z,98349.47
2022-12-18T02:37:33.385Z,98359.72
2022-12-18T02:40:04.881Z,98345.56
2022-12-18T02:42:33.596Z,98350.34
2022-12-18T02:45:01.370Z,98352.31
2022-12-18T02:47:36.589Z,98359.31
2022-12-18T02:50:03.388Z,98360.34
2022-12-18T02:53:01.838Z,98355.53
2022-12-18T02:55:37.166Z,98362.72
2022-12-18T02:58:47.527Z,98363.28
2022-12-18T03:01:42.824Z,98360.19
2022-12-18T03:04:17.112Z,98353.84
2022-12-18T03:06:49.384Z,98356.91
2022-12-18T03:09:27.888Z,98363.84
2022-12-18T03:12:23.452Z,98370.75
2022-12-18T03:14:57.840Z,98370.31
2022-12-18T03:17:27.988Z,98361.22
2022-12-18T03:19:59.304Z,98358.53
2022-12-18T03:22:29.248Z,98358.72
2022-12-18T03:24:58.495Z,98372.69
2022-12-18T03:27:29.111Z,98381.59
2022-12-18T03:30:09.141Z,98379.31
2022-12-18T03:33:13.899Z,98373.63
2022-12-18T03:35:44.851Z,98369.69
2022-12-18T03:38:13.267Z,98374.06
2022-12-18T03:40:43.947Z,98371.03
2022-12-18T03:43:36.197Z,98371.75
2022-12-18T03:46:12.558Z,98369.75
2022-12-18T03:48:45.273Z,98379.28
2022-12-18T03:51:24.383Z,98383.56
2022-12-18T03:53:57.801Z,98384.19
2022-12-18T03:56:36.564Z,98375.94
2022-12-18T03:59:05.556Z,98370.00
2022-12-18T04:01:37.127Z,98371.72
2022-12-18T04:04:05.873Z,98368.31
2022-12-18T04:06:36.361Z,98365.00
2022-12-18T04:09:03.484Z,98367.63
2022-12-18T04:11:32.259Z,98379.50
2022-12-18T04:14:01.280Z,98371.84
2022-12-18T04:16:29.411Z,98379.44
2022-12-18T04:19:00.080Z,98387.63
2022-12-18T04:21:30.385Z,98378.63
2022-12-18T04:23:56.843Z,98384.69
2022-12-18T04:26:23.529Z,98387.06
2022-12-18T04:28:59.766Z,98389.06
2022-12-18T04:31:26.997Z,98385.50
2022-12-18T04:33:53.675Z,98381.47
2022-12-18T04:36:20.890Z,98375.97
2022-12-18T04:38:47.660Z,98367.13
2022-12-18T04:41:16.428Z,98373.56
2022-12-18T04:43:45.931Z,98362.94
2022-12-18T04:46:12.496Z,98362.28
2022-12-18T04:48:39.937Z,98364.06
2022-12-18T04:51:07.150Z,98373.81
2022-12-18T04:53:33.821Z,98356.44
2022-12-18T04:56:18.372Z,98357.25
2022-12-18T04:58:45.547Z,98365.06
2022-12-18T05:01:14.174Z,98361.50
2022-12-18T05:03:41.467Z,98356.69
2022-12-18T05:06:08.867Z,98367.13
2022-12-18T05:08:35.696Z,98387.47
2022-12-18T05:11:09.460Z,98383.53
2022-12-18T05:13:39.117Z,98375.44
2022-12-18T05:16:06.705Z,98383.59
2022-12-18T05:18:33.360Z,98386.00
2022-12-18T05:20:59.916Z,98388.06
2022-12-18T05:23:26.893Z,98386.47
2022-12-18T05:25:58.933Z,98386.63
2022-12-18T05:28:27.596Z,98396.34
2022-12-18T05:30:56.956Z,98403.41
2022-12-18T05:33:25.766Z,98403.72
2022-12-18T05:35:56.545Z,98406.09
2022-12-18T05:38:24.868Z,98395.59
2022-12-18T05:40:52.650Z,98392.31
2022-12-18T05:43:21.533Z,98398.84
2022-12-18T05:45:49.127Z,98391.25
2022-12-18T05:48:16.537Z,98390.72
2022-12-18T05:50:46.477Z,98385.41
2022-12-18T05:53:14.562Z,98384.56
2022-12-18T05:55:41.896Z,98383.91
2022-12-18T05:58:10.324Z,98394.13
2022-12-18T06:00:42.736Z,98391.19
2022-12-18T06:03:10.466Z,98393.25
2022-12-18T06:05:38.820Z,98381.94
2022-12-18T06:08:05.675Z,98382.59
2022-12-18T06:10:32.781Z,98386.41
2022-12-18T06:12:59.547Z,98390.19
2022-12-18T06:15:26.033Z,98379.94
2022-12-18T06:17:52.569Z,98384.41
2022-12-18T06:20:19.691Z,98389.94
2022-12-18T06:22:46.162Z,98385.06
2022-12-18T06:25:12.763Z,98387.66
2022-12-18T06:27:39.551Z,98405.25
2022-12-18T06:30:07.107Z,98402.81
2022-12-18T06:32:33.652Z,98399.75
2022-12-18T06:35:00.146Z,98398.09
2022-12-18T06:37:27.141Z,98396.38
2022-12-18T06:39:54.752Z,98397.03
2022-12-18T06:42:24.202Z,98393.09
2022-12-18T06:44:51.557Z,98393.28
2022-12-18T06:47:18.556Z,98400.72
2022-12-18T06:49:45.018Z,98402.31
2022-12-18T06:52:11.488Z,98409.28
2022-12-18T06:54:37.963Z,98415.28
2022-12-18T06:57:04.403Z,98415.38
2022-12-18T06:59:30.827Z,98417.03
2022-12-18T07:01:57.501Z,98419.56
2022-12-18T07:04:30.236Z,98422.00
2022-12-18T07:06:56.758Z,98425.66
2022-12-18T07:09:23.239Z,98434.44
2022-12-18T07:11:49.852Z,98422.03
2022-12-18T07:14:16.265Z,98423.81
2022-12-18T07:16:42.825Z,98431.22
2022-12-18T07:19:09.391Z,98432.22
2022-12-18T07:21:35.907Z,98435.63
2022-12-18T07:24:02.463Z,98434.00
2022-12-18T07:26:28.959Z,98423.72
2022-12-18T07:28:57.279Z,98436.44
2022-12-18T07:31:24.769Z,98434.28
2022-12-18T07:33:52.059Z,98438.69
2022-12-18T07:36:19.049Z,98438.78
2022-12-18T07:38:49.124Z,98436.16
2022-12-18T07:41:16.396Z,98440.94
2022-12-18T07:43:43.469Z,98436.53
2022-12-18T07:46:13.179Z,98438.88
2022-12-18T07:48:41.228Z,98442.66
2022-12-18T07:51:08.339Z,98437.56
2022-12-18T07:53:36.421Z,98440.56
2022-12-18T07:58:55.958Z,98442.97
2022-12-18T08:01:22.634Z,98435.47
2022-12-18T08:03:49.901Z,98439.53
2022-12-18T08:06:19.087Z,98435.59
2022-12-18T08:08:45.636Z,98436.03
2022-12-18T08:11:12.666Z,98452.41
2022-12-18T08:13:39.480Z,98454.50
2022-12-18T08:16:08.288Z,98453.19
2022-12-18T08:18:36.700Z,98458.63
2022-12-18T08:21:14.031Z,98456.00
2022-12-18T08:23:43.223Z,98447.56
2022-12-18T08:26:11.421Z,98455.53
2022-12-18T08:28:38.224Z,98454.78
2022-12-18T08:31:05.107Z,98451.19
2022-12-18T08:33:32.264Z,98451.63
2022-12-18T08:36:02.751Z,98444.56
2022-12-18T08:38:29.364Z,98455.09
2022-12-18T08:41:07.390Z,98457.16
2022-12-18T08:43:52.895Z,98459.66
2022-12-18T08:46:21.131Z,98453.44
2022-12-18T08:48:48.024Z,98450.19
2022-12-18T08:51:17.344Z,98446.41
2022-12-18T08:53:45.512Z,98440.31
2022-12-18T08:56:13.260Z,98435.38
2022-12-18T08:58:40.422Z,98436.66
2022-12-18T09:01:10.306Z,98430.75
2022-12-18T09:03:37.047Z,98431.81
2022-12-18T09:06:04.239Z,98430.94
2022-12-18T09:08:30.944Z,98428.44
2022-12-18T09:10:57.629Z,98427.31
2022-12-18T09:13:24.979Z,98421.00
2022-12-18T09:15:54.448Z,98415.94
2022-12-18T09:18:23.770Z,98411.47
2022-12-18T09:20:52.672Z,98412.94
2022-12-18T09:23:20.056Z,98415.41
2022-12-18T09:25:46.591Z,98412.44
2022-12-18T09:28:15.551Z,98408.09
2022-12-18T09:30:45.173Z,98410.16
2022-12-18T09:33:11.913Z,98407.31
2022-12-18T09:35:40.160Z,98409.84
2022-12-18T09:38:07.429Z,98407.81
2022-12-18T09:40:40.625Z,98415.38
2022-12-18T09:43:08.282Z,98408.59
2022-12-18T09:45:45.433Z,98413.84
2022-12-18T09:48:26.294Z,98417.28
2022-12-18T09:50:58.515Z,98416.28
2022-12-18T09:53:29.024Z,98412.50
2022-12-18T09:55:57.273Z,98411.53
2022-12-18T09:58:32.978Z,98413.56
2022-12-18T10:00:59.864Z,98416.81
2022-12-18T10:03:26.613Z,98419.47
2022-12-18T10:06:01.869Z,98417.91
2022-12-18T10:08:45.057Z,98420.53
2022-12-18T10:11:35.420Z,98427.00
2022-12-18T10:14:18.642Z,98429.78
2022-12-18T10:17:02.047Z,98430.03
2022-12-18T10:19:40.864Z,98430.94
2022-12-18T10:22:29.728Z,98431.19
2022-12-18T10:25:18.149Z,98431.44
2022-12-18T10:27:44.727Z,98430.22
2022-12-18T10:30:21.968Z,98425.91
2022-12-18T10:32:48.434Z,98418.13
2022-12-18T10:35:21.771Z,98426.50
2022-12-18T10:38:08.305Z,98420.50
2022-12-18T10:40:50.539Z,98425.13
2022-12-18T10:43:25.490Z,98430.06
2022-12-18T10:46:10.322Z,98426.19
2022-12-18T10:48:49.460Z,98438.88
2022-12-18T10:51:24.081Z,98437.53
2022-12-18T10:53:57.613Z,98431.59
2022-12-18T10:56:27.101Z,98430.88
2022-12-18T10:58:59.650Z,98418.03
2022-12-18T11:01:26.603Z,98416.69
2022-12-18T11:04:01.637Z,98416.44
2022-12-18T11:06:29.142Z,98403.16
2022-12-18T11:09:14.472Z,98401.41
2022-12-18T11:11:42.132Z,98388.00
2022-12-18T11:14:21.485Z,98400.50
2022-12-18T11:17:23.892Z,98403.09
2022-12-18T11:19:42.117Z,98409.06
2022-12-18T11:22:31.593Z,98407.22
2022-12-18T11:25:35.626Z,98406.13
2022-12-18T11:28:06.329Z,98402.19
2022-12-18T11:30:34.148Z,98406.72
2022-12-18T11:33:00.727Z,98405.31
2022-12-18T11:35:45.497Z,98391.53
2022-12-18T11:38:21.565Z,98387.31
2022-12-18T11:41:06.121Z,98385.75
2022-12-18T11:43:38.814Z,98387.31
2022-12-18T11:46:17.621Z,98386.84
2022-12-18T11:48:53.079Z,98374.63
2022-12-18T11:51:29.167Z,98381.34
2022-12-18T11:53:55.619Z,98381.53
2022-12-18T11:56:30.322Z,98376.22
2022-12-18T11:59:23.929Z,98375.97
2022-12-18T12:02:00.354Z,98371.66
2022-12-18T12:04:48.820Z,98380.84
2022-12-18T12:07:27.479Z,98370.97
2022-12-18T12:09:56.988Z,98360.41
2022-12-18T12:12:56.428Z,98368.19
2022-12-18T12:15:44.417Z,98361.63
2022-12-18T12:18:27.169Z,98361.38
2022-12-18T12:21:11.577Z,98351.22
2022-12-18T12:24:01.379Z,98348.56
2022-12-18T12:26:43.560Z,98352.72
2022-12-18T12:29:39.398Z,98356.78
2022-12-18T12:32:18.129Z,98357.91
2022-12-18T12:34:52.621Z,98368.25
2022-12-18T12:37:48.967Z,98369.75
2022-12-18T12:40:50.323Z,98371.69
2022-12-18T12:43:23.331Z,98373.69
2022-12-18T12:46:10.075Z,98380.38
2022-12-18T12:48:50.273Z,98370.88
2022-12-18T12:51:30.917Z,98370.19
2022-12-18T12:53:59.465Z,98376.84
2022-12-18T12:56:41.151Z,98385.91
2022-12-18T12:59:18.187Z,98391.06
2022-12-18T13:02:00.752Z,98387.88
2022-12-18T13:04:48.764Z,98384.78
2022-12-18T13:07:42.301Z,98387.19
2022-12-18T13:10:26.981Z,98379.38
2022-12-18T13:12:58.096Z,98369.88
2022-12-18T13:15:39.982Z,98376.56
2022-12-18T13:18:28.332Z,98373.47
2022-12-18T13:20:59.859Z,98369.09
2022-12-18T13:23:29.641Z,98354.81
2022-12-18T13:26:00.513Z,98358.56
2022-12-18T13:28:46.155Z,98358.81
2022-12-18T13:31:14.769Z,98361.91
2022-12-18T13:34:23.945Z,98357.56
2022-12-18T13:36:35.192Z,98354.50
2022-12-18T13:39:17.384Z,98359.44
2022-12-18T13:41:48.633Z,98348.28
2022-12-18T13:44:39.960Z,98346.47
2022-12-18T13:47:32.182Z,98341.88
2022-12-18T13:49:58.871Z,98342.84
2022-12-18T13:52:28.838Z,98339.34
2022-12-18T13:55:00.835Z,98338.94
2022-12-18T13:57:36.296Z,98343.53
2022-12-18T14:00:26.291Z,98346.47
2022-12-18T14:02:53.332Z,98345.91
2022-12-18T14:05:24.420Z,98342.28
2022-12-18T14:07:51.826Z,98347.84
2022-12-18T14:10:42.624Z,98346.75
2022-12-18T14:13:09.474Z,98347.59
2022-12-18T14:15:44.437Z,98347.03
2022-12-18T14:18:27.845Z,98350.09
2022-12-18T14:20:58.324Z,98361.09
2022-12-18T14:23:42.224Z,98358.44
2022-12-18T14:26:30.126Z,98354.84
2022-12-18T14:29:02.065Z,98349.81
2022-12-18T14:31:31.477Z,98350.38
2022-12-18T14:33:58.051Z,98352.03
2022-12-18T14:36:26.937Z,98347.56
2022-12-18T14:38:56.204Z,98346.84
2022-12-18T14:41:23.831Z,98351.56
2022-12-18T14:43:52.990Z,98354.03
2022-12-18T14:46:43.187Z,98349.25
2022-12-18T14:49:21.092Z,98360.38
2022-12-18T14:51:53.635Z,98349.22
2022-12-18T14:54:21.838Z,98347.25
2022-12-18T14:56:52.226Z,98351.13
2022-12-18T14:59:27.099Z,98355.56
2022-12-18T15:02:09.449Z,98354.22
2022-12-18T15:04:44.775Z,98354.94
2022-12-18T15:07:21.949Z,98363.53
2022-12-18T15:10:03.557Z,98357.59
2022-12-18T15:12:37.268Z,98354.09
2022-12-18T15:15:05.733Z,98351.31
2022-12-18T15:17:32.467Z,98352.00
2022-12-18T15:20:09.971Z,98355.84
2022-12-18T15:22:38.327Z,98357.44
2022-12-18T15:25:32.062Z,98351.47
2022-12-18T15:27:58.578Z,98350.78
2022-12-18T15:30:26.644Z,98362.28
2022-12-18T15:33:13.611Z,98358.25
2022-12-18T15:35:45.264Z,98353.94
2022-12-18T15:38:13.328Z,98350.22
2022-12-18T15:40:39.858Z,98353.09
2022-12-18T15:43:27.692Z,98356.19
2022-12-18T15:45:54.169Z,98352.47
2022-12-18T15:48:23.070Z,98347.09
2022-12-18T15:50:53.435Z,98341.56
2022-12-18T15:53:20.419Z,98344.44
2022-12-18T15:56:05.321Z,98352.81
2022-12-18T15:58:31.802Z,98353.56
2022-12-18T16:01:00.491Z,98353.75
2022-12-18T16:03:27.445Z,98356.09
2022-12-18T16:05:54.008Z,98355.34
2022-12-18T16:08:20.997Z,98353.69
2022-12-18T16:10:47.634Z,98355.72
2022-12-18T16:13:19.936Z,98361.63
2022-12-18T16:15:46.443Z,98359.63
2022-12-18T16:18:12.940Z,98352.09
2022-12-18T16:20:39.630Z,98345.75
2022-12-18T16:23:06.129Z,98339.19
2022-12-18T16:25:33.053Z,98340.59
2022-12-18T16:27:59.609Z,98349.72
2022-12-18T16:30:36.244Z,98338.09
2022-12-18T16:33:07.230Z,98342.03
2022-12-18T16:35:35.139Z,98343.69
2022-12-18T16:38:01.740Z,98340.28
2022-12-18T16:40:28.554Z,98344.53
2022-12-18T16:42:55.173Z,98328.31
2022-12-18T16:45:21.680Z,98339.72
2022-12-18T16:47:49.189Z,98338.06
2022-12-18T16:50:15.756Z,98331.28
2022-12-18T16:52:42.391Z,98331.28
2022-12-18T16:55:09.280Z,98319.16
2022-12-18T16:57:35.983Z,98320.28
2022-12-18T17:00:05.506Z,98319.50
2022-12-18T17:02:33.497Z,98313.63
2022-12-18T17:05:00.426Z,98318.91
2022-12-18T17:07:28.046Z,98310.22
2022-12-18T17:09:54.710Z,98317.66
2022-12-18T17:12:22.146Z,98317.44
2022-12-18T17:14:48.873Z,98321.94
2022-12-18T17:17:23.919Z,98309.69
2022-12-18T17:19:51.885Z,98298.75
2022-12-18T17:22:18.862Z,98295.75
2022-12-18T17:24:46.604Z,98292.88
2022-12-18T17:27:13.079Z,98287.22
2022-12-18T17:29:45.427Z,98296.81
2022-12-18T17:32:13.747Z,98294.66
2022-12-18T17:34:40.680Z,98289.09
2022-12-18T17:37:07.415Z,98286.03
2022-12-18T17:39:34.012Z,98289.91
2022-12-18T17:42:01.225Z,98292.59
2022-12-18T17:44:27.879Z,98283.88
2022-12-18T17:46:55.069Z,98296.28
2022-12-18T17:49:21.669Z,98289.56
2022-12-18T17:51:48.731Z,98296.38
2022-12-18T17:54:15.244Z,98295.56
2022-12-18T17:56:41.879Z,98291.50
2022-12-18T17:59:08.932Z,98296.91
2022-12-18T18:01:40.972Z,98289.72
2022-12-18T18:04:10.548Z,98286.34
2022-12-18T18:06:38.981Z,98280.50
2022-12-18T18:09:13.409Z,98274.94
2022-12-18T18:12:03.928Z,98270.19
2022-12-18T18:14:30.836Z,98270.06
2022-12-18T18:16:59.212Z,98268.25
2022-12-18T18:19:31.613Z,98276.69
2022-12-18T18:21:58.087Z,98269.03
2022-12-18T18:24:25.814Z,98273.38
2022-12-18T18:26:52.555Z,98269.19
2022-12-18T18:29:24.213Z,98270.16
2022-12-18T18:31:53.634Z,98258.75
2022-12-18T18:34:26.444Z,98264.47
2022-12-18T18:36:53.114Z,98267.94
2022-12-18T18:39:19.954Z,98263.19
2022-12-18T18:41:48.337Z,98259.41
2022-12-18T18:44:18.627Z,98273.63
2022-12-18T18:46:45.398Z,98269.75
2022-12-18T18:49:13.649Z,98275.31
2022-12-18T18:51:41.482Z,98280.91
2022-12-18T18:54:08.432Z,98275.09
2022-12-18T18:56:56.480Z,98272.44
2022-12-18T18:59:21.535Z,98250.72
2022-12-18T19:01:56.290Z,98248.06
2022-12-18T19:04:22.851Z,98249.47
2022-12-18T19:06:49.594Z,98244.44
2022-12-18T19:09:16.078Z,98233.84
2022-12-18T19:12:01.393Z,98236.78
2022-12-18T19:14:29.412Z,98243.19
2022-12-18T19:16:56.085Z,98231.47
2022-12-18T19:19:23.501Z,98234.69
2022-12-18T19:21:50.263Z,98223.94
2022-12-18T19:24:16.886Z,98220.63
2022-12-18T19:26:43.741Z,98221.47
2022-12-18T19:29:11.847Z,98228.56
2022-12-18T19:31:40.527Z,98227.16
2022-12-18T19:34:07.942Z,98219.50
2022-12-18T19:36:39.065Z,98223.09
2022-12-18T19:39:12.266Z,98218.44
2022-12-18T19:41:39.704Z,98212.72
2022-12-18T19:44:07.755Z,98214.97
2022-12-18T19:46:35.872Z,98211.06
2022-12-18T19:49:02.858Z,98206.69
2022-12-18T19:51:31.407Z,98205.44
2022-12-18T19:54:01.746Z,98201.13
2022-12-18T19:56:32.377Z,98196.28
2022-12-18T19:58:59.532Z,98195.16
2022-12-18T20:01:27.720Z,98202.38
2022-12-18T20:03:55.930Z,98200.88
2022-12-18T20:06:29.177Z,98194.44
2022-12-18T20:09:00.452Z,98184.09
2022-12-18T20:11:28.641Z,98189.53
2022-12-18T20:13:55.134Z,98192.28
2022-12-18T20:16:21.786Z,98182.84
2022-12-18T20:18:49.190Z,98184.00
2022-12-18T20:21:15.975Z,98174.78
2022-12-18T20:23:43.223Z,98178.78
2022-12-18T20:26:10.539Z,98183.38
2022-12-18T20:28:37.086Z,98180.63
2022-12-18T20:31:08.423Z,98180.28
2022-12-18T20:33:37.303Z,98179.03
2022-12-18T20:36:08.993Z,98182.66
2022-12-18T20:38:38.330Z,98184.66
2022-12-18T20:41:15.300Z,98185.25
2022-12-18T20:43:42.295Z,98179.44
2022-12-18T20:46:10.697Z,98169.97
2022-12-18T20:48:40.476Z,98160.72
2022-12-18T20:51:12.879Z,98171.06
2022-12-18T20:53:41.787Z,98171.44
2022-12-18T20:56:10.803Z,98166.56
2022-12-18T20:58:37.472Z,98174.50
2022-12-18T21:01:09.572Z,98179.22
2022-12-18T21:03:37.201Z,98176.28
2022-12-18T21:06:04.317Z,98177.97
2022-12-18T21:08:31.996Z,98180.25
2022-12-18T21:11:35.297Z,98171.13
2022-12-18T21:14:03.942Z,98182.50
2022-12-18T21:16:30.472Z,98169.94
2022-12-18T21:18:57.074Z,98173.63
2022-12-18T21:21:26.994Z,98168.06
2022-12-18T21:23:54.436Z,98186.97
2022-12-18T21:26:24.071Z,98182.09
2022-12-18T21:29:04.707Z,98176.13
2022-12-18T21:31:34.649Z,98181.91
2022-12-18T21:34:02.690Z,98172.81
2022-12-18T21:36:30.547Z,98172.81
2022-12-18T21:38:58.339Z,98179.41
2022-12-18T21:41:44.117Z,98181.00
2022-12-18T21:44:13.188Z,98183.03
2022-12-18T21:46:43.046Z,98179.63
2022-12-18T21:49:10.745Z,98174.47
2022-12-18T21:51:37.851Z,98166.13
2022-12-18T21:54:04.570Z,98171.88
2022-12-18T21:56:51.321Z,98162.78
2022-12-18T21:59:29.643Z,98158.72
2022-12-18T22:01:58.470Z,98148.31
2022-12-18T22:04:26.177Z,98142.41
2022-12-18T22:06:53.872Z,98153.25
2022-12-18T22:09:22.492Z,98152.88
2022-12-18T22:11:49.805Z,98147.34
2022-12-18T22:14:20.412Z,98150.47
2022-12-18T22:16:47.240Z,98158.13
2022-12-18T22:19:15.169Z,98161.22
2022-12-18T22:21:47.656Z,98154.91
2022-12-18T22:24:20.027Z,98150.84
2022-12-18T22:26:47.227Z,98159.09
2022-12-18T22:29:38.033Z,98161.75
2022-12-18T22:32:06.704Z,98153.19
2022-12-18T22:34:36.427Z,98151.97
2022-12-18T22:37:03.755Z,98145.00
2022-12-18T22:39:30.924Z,98160.31
2022-12-18T22:41:58.309Z,98160.47
2022-12-18T22:44:27.919Z,98160.69
2022-12-18T22:47:06.285Z,98166.63
2022-12-18T22:49:34.977Z,98166.56
2022-12-18T22:52:06.320Z,98165.88
2022-12-18T22:54:32.851Z,98164.81
2022-12-18T22:56:59.305Z,98164.72
2022-12-18T22:59:25.819Z,98168.50
2022-12-18T23:01:54.927Z,98169.94
2022-12-18T23:04:36.641Z,98168.97
2022-12-18T23:07:05.446Z,98168.66
2022-12-18T23:09:32.706Z,98175.88
2022-12-18T23:11:59.638Z,98174.44
2022-12-18T23:14:26.688Z,98176.88
2022-12-18T23:16:53.425Z,98172.84
2022-12-18T23:19:20.572Z,98176.94
2022-12-18T23:21:47.303Z,98176.78
2022-12-18T23:24:13.765Z,98169.22
2022-12-18T23:26:40.462Z,98180.06
2022-12-18T23:29:07.083Z,98182.22
2022-12-18T23:31:36.197Z,98189.59
2022-12-18T23:34:04.496Z,98194.63
2022-12-18T23:36:34.601Z,98183.09
2022-12-18T23:39:12.458Z,98186.97
2022-12-18T23:41:45.752Z,98194.78
2022-12-18T23:44:12.276Z,98187.63
2022-12-18T23:46:38.868Z,98188.59
2022-12-18T23:49:06.629Z,98192.09
2022-12-18T23:51:33.241Z,98192.78
2022-12-18T23:54:03.801Z,98207.41
2022-12-18T23:56:30.523Z,98203.56
2022-12-18T23:58:57.299Z,98200.94
